sensor_id;sensor_type;location;lat;lon;timestamp;pressure;altitude;pressure_sealevel;temperature;humidity
12868;BME280;33517;49.866;8.320;2023-06-26T00:02:24;100330.88;;;19.70;61.91
12868;BME280;33517;49.866;8.320;2023-06-26T00:05:16;100324.59;;;19.65;61.84
12868;BME280;33517;49.866;8.320;2023-06-26T00:08:10;100327.34;;;19.58;62.08
12868;BME280;33517;49.866;8.320;2023-06-26T00:11:01;100325.78;;;19.51;62.78
12868;BME280;33517;49.866;8.320;2023-06-26T00:13:53;100332.84;;;19.45;63.19
12868;BME280;33517;49.866;8.320;2023-06-26T00:16:45;100337.97;;;19.47;63.51
12868;BME280;33517;49.866;8.320;2023-06-26T00:19:37;100341.63;;;19.34;64.27
12868;BME280;33517;49.866;8.320;2023-06-26T00:22:29;100333.00;;;19.32;64.03
12868;BME280;33517;49.866;8.320;2023-06-26T00:25:22;100326.97;;;19.18;65.36
12868;BME280;33517;49.866;8.320;2023-06-26T00:28:14;100330.13;;;19.15;65.80
12868;BME280;33517;49.866;8.320;2023-06-26T00:31:06;100324.59;;;19.10;64.66
12868;BME280;33517;49.866;8.320;2023-06-26T00:33:58;100327.72;;;19.07;64.57
12868;BME280;33517;49.866;8.320;2023-06-26T00:36:50;100322.47;;;19.01;64.49
12868;BME280;33517;49.866;8.320;2023-06-26T00:39:42;100317.81;;;18.96;64.21
12868;BME280;33517;49.866;8.320;2023-06-26T00:42:35;100324.25;;;18.89;64.44
12868;BME280;33517;49.866;8.320;2023-06-26T00:45:28;100309.13;;;18.83;64.70
12868;BME280;33517;49.866;8.320;2023-06-26T00:48:20;100314.75;;;18.75;64.73
12868;BME280;33517;49.866;8.320;2023-06-26T00:51:12;100315.16;;;18.72;65.52
12868;BME280;33517;49.866;8.320;2023-06-26T00:54:04;100316.44;;;18.69;65.41
12868;BME280;33517;49.866;8.320;2023-06-26T00:56:56;100314.28;;;18.78;67.95
12868;BME280;33517;49.866;8.320;2023-06-26T00:59:49;100315.94;;;18.97;68.58
12868;BME280;33517;49.866;8.320;2023-06-26T01:02:41;100314.69;;;18.99;66.71
12868;BME280;33517;49.866;8.320;2023-06-26T01:05:33;100308.53;;;18.99;67.79
12868;BME280;33517;49.866;8.320;2023-06-26T01:08:26;100305.84;;;18.99;67.46
12868;BME280;33517;49.866;8.320;2023-06-26T01:11:18;100298.09;;;18.97;67.54
12868;BME280;33517;49.866;8.320;2023-06-26T01:14:10;100308.38;;;18.94;66.80
12868;BME280;33517;49.866;8.320;2023-06-26T01:17:04;100305.34;;;18.90;66.40
12868;BME280;33517;49.866;8.320;2023-06-26T01:19:58;100302.53;;;18.85;66.67
12868;BME280;33517;49.866;8.320;2023-06-26T01:22:56;100301.31;;;18.81;66.58
12868;BME280;33517;49.866;8.320;2023-06-26T01:28:56;100293.03;;;18.71;66.41
12868;BME280;33517;49.866;8.320;2023-06-26T01:31:49;100295.34;;;18.68;66.45
12868;BME280;33517;49.866;8.320;2023-06-26T01:34:41;100296.81;;;18.64;65.82
12868;BME280;33517;49.866;8.320;2023-06-26T01:37:33;100289.84;;;18.63;66.64
12868;BME280;33517;49.866;8.320;2023-06-26T01:40:25;100284.28;;;18.64;66.48
12868;BME280;33517;49.866;8.320;2023-06-26T01:43:21;100282.28;;;18.60;68.04
12868;BME280;33517;49.866;8.320;2023-06-26T01:46:22;100280.50;;;18.54;67.26
12868;BME280;33517;49.866;8.320;2023-06-26T01:49:19;100285.47;;;18.50;67.77
12868;BME280;33517;49.866;8.320;2023-06-26T01:52:19;100281.81;;;18.45;67.13
12868;BME280;33517;49.866;8.320;2023-06-26T01:55:15;100292.50;;;18.38;67.35
12868;BME280;33517;49.866;8.320;2023-06-26T01:58:09;100286.78;;;18.34;67.24
12868;BME280;33517;49.866;8.320;2023-06-26T02:01:01;100286.84;;;18.28;67.52
12868;BME280;33517;49.866;8.320;2023-06-26T02:03:55;100285.25;;;18.20;67.78
12868;BME280;33517;49.866;8.320;2023-06-26T02:06:47;100296.78;;;18.14;67.51
12868;BME280;33517;49.866;8.320;2023-06-26T02:09:38;100291.16;;;18.04;67.59
12868;BME280;33517;49.866;8.320;2023-06-26T02:12:30;100297.56;;;17.97;68.07
12868;BME280;33517;49.866;8.320;2023-06-26T02:15:22;100297.34;;;17.92;68.43
12868;BME280;33517;49.866;8.320;2023-06-26T02:18:14;100307.03;;;17.86;68.07
12868;BME280;33517;49.866;8.320;2023-06-26T02:21:08;100295.38;;;17.81;68.54
12868;BME280;33517;49.866;8.320;2023-06-26T02:24:00;100295.84;;;17.78;68.69
12868;BME280;33517;49.866;8.320;2023-06-26T02:26:52;100300.81;;;17.68;69.35
12868;BME280;33517;49.866;8.320;2023-06-26T02:29:44;100302.38;;;17.75;69.87
12868;BME280;33517;49.866;8.320;2023-06-26T02:32:36;100296.63;;;17.78;69.26
12868;BME280;33517;49.866;8.320;2023-06-26T02:35:27;100296.03;;;17.76;69.11
12868;BME280;33517;49.866;8.320;2023-06-26T02:38:21;100293.19;;;17.71;69.47
12868;BME280;33517;49.866;8.320;2023-06-26T02:41:12;100298.53;;;17.71;69.41
12868;BME280;33517;49.866;8.320;2023-06-26T02:44:04;100294.25;;;17.70;69.33
12868;BME280;33517;49.866;8.320;2023-06-26T02:46:56;100299.38;;;17.65;70.86
12868;BME280;33517;49.866;8.320;2023-06-26T02:49:48;100292.63;;;17.63;69.98
12868;BME280;33517;49.866;8.320;2023-06-26T02:52:40;100292.47;;;17.58;70.54
12868;BME280;33517;49.866;8.320;2023-06-26T02:55:34;100295.94;;;17.58;70.11
12868;BME280;33517;49.866;8.320;2023-06-26T02:58:26;100295.56;;;17.55;70.06
12868;BME280;33517;49.866;8.320;2023-06-26T03:01:18;100296.78;;;17.52;70.27
12868;BME280;33517;49.866;8.320;2023-06-26T03:04:10;100296.19;;;17.50;70.16
12868;BME280;33517;49.866;8.320;2023-06-26T03:07:02;100293.34;;;17.38;71.06
12868;BME280;33517;49.866;8.320;2023-06-26T03:09:53;100293.34;;;17.38;70.88
12868;BME280;33517;49.866;8.320;2023-06-26T03:12:47;100290.13;;;17.30;73.24
12868;BME280;33517;49.866;8.320;2023-06-26T03:15:38;100293.63;;;17.24;73.96
12868;BME280;33517;49.866;8.320;2023-06-26T03:18:30;100296.28;;;17.24;72.68
12868;BME280;33517;49.866;8.320;2023-06-26T03:21:22;100291.97;;;17.29;71.98
12868;BME280;33517;49.866;8.320;2023-06-26T03:24:14;100299.72;;;17.31;71.70
12868;BME280;33517;49.866;8.320;2023-06-26T03:27:07;100295.19;;;17.38;71.88
12868;BME280;33517;49.866;8.320;2023-06-26T03:30:01;100297.31;;;17.67;72.27
12868;BME280;33517;49.866;8.320;2023-06-26T03:32:53;100297.81;;;17.89;72.09
12868;BME280;33517;49.866;8.320;2023-06-26T03:35:45;100298.94;;;17.99;72.27
12868;BME280;33517;49.866;8.320;2023-06-26T03:38:37;100300.34;;;18.08;72.55
12868;BME280;33517;49.866;8.320;2023-06-26T03:41:29;100298.06;;;18.12;71.95
12868;BME280;33517;49.866;8.320;2023-06-26T03:44:22;100293.91;;;17.91;72.42
12868;BME280;33517;49.866;8.320;2023-06-26T03:47:15;100301.31;;;17.83;72.41
12868;BME280;33517;49.866;8.320;2023-06-26T03:50:08;100298.56;;;17.96;71.79
12868;BME280;33517;49.866;8.320;2023-06-26T03:53:00;100294.41;;;18.06;72.57
12868;BME280;33517;49.866;8.320;2023-06-26T03:55:52;100294.44;;;18.24;72.31
12868;BME280;33517;49.866;8.320;2023-06-26T03:58:43;100298.47;;;18.33;71.55
12868;BME280;33517;49.866;8.320;2023-06-26T04:01:35;100299.88;;;18.43;71.36
12868;BME280;33517;49.866;8.320;2023-06-26T04:04:29;100301.28;;;18.45;70.78
12868;BME280;33517;49.866;8.320;2023-06-26T04:07:21;100298.78;;;18.50;70.62
12868;BME280;33517;49.866;8.320;2023-06-26T04:10:13;100300.03;;;18.48;70.13
12868;BME280;33517;49.866;8.320;2023-06-26T04:13:05;100306.28;;;18.60;70.72
12868;BME280;33517;49.866;8.320;2023-06-26T04:15:56;100294.06;;;18.70;70.32
12868;BME280;33517;49.866;8.320;2023-06-26T04:18:48;100305.31;;;18.72;70.00
12868;BME280;33517;49.866;8.320;2023-06-26T04:21:41;100299.19;;;18.90;69.72
12868;BME280;33517;49.866;8.320;2023-06-26T04:24:33;100305.25;;;18.97;69.31
12868;BME280;33517;49.866;8.320;2023-06-26T04:27:25;100300.09;;;19.02;68.52
12868;BME280;33517;49.866;8.320;2023-06-26T04:30:17;100305.50;;;19.13;68.28
12868;BME280;33517;49.866;8.320;2023-06-26T04:33:09;100298.59;;;19.24;67.91
12868;BME280;33517;49.866;8.320;2023-06-26T04:36:02;100313.69;;;19.37;67.79
12868;BME280;33517;49.866;8.320;2023-06-26T04:38:56;100303.25;;;19.47;67.52
12868;BME280;33517;49.866;8.320;2023-06-26T04:41:48;100304.38;;;19.57;67.21
12868;BME280;33517;49.866;8.320;2023-06-26T04:44:39;100309.28;;;19.72;66.69
12868;BME280;33517;49.866;8.320;2023-06-26T04:47:32;100300.72;;;19.81;66.42
12868;BME280;33517;49.866;8.320;2023-06-26T04:50:24;100308.09;;;19.97;65.95
12868;BME280;33517;49.866;8.320;2023-06-26T04:53:15;100312.41;;;20.10;65.75
12868;BME280;33517;49.866;8.320;2023-06-26T04:56:08;100306.78;;;20.18;65.31
12868;BME280;33517;49.866;8.320;2023-06-26T04:59:01;100308.81;;;20.46;65.88
12868;BME280;33517;49.866;8.320;2023-06-26T05:01:53;100291.47;;;20.83;65.59
12868;BME280;33517;49.866;8.320;2023-06-26T05:04:45;100296.72;;;21.01;64.85
12868;BME280;33517;49.866;8.320;2023-06-26T05:07:38;100296.09;;;21.11;64.01
12868;BME280;33517;49.866;8.320;2023-06-26T05:10:30;100290.91;;;21.32;64.05
12868;BME280;33517;49.866;8.320;2023-06-26T05:13:23;100292.25;;;21.46;62.71
12868;BME280;33517;49.866;8.320;2023-06-26T05:16:15;100296.38;;;21.37;61.96
12868;BME280;33517;49.866;8.320;2023-06-26T05:19:06;100291.22;;;21.47;62.41
12868;BME280;33517;49.866;8.320;2023-06-26T05:21:58;100293.13;;;21.63;61.85
12868;BME280;33517;49.866;8.320;2023-06-26T05:24:55;100292.47;;;21.84;60.57
12868;BME280;33517;49.866;8.320;2023-06-26T05:27:47;100294.84;;;21.97;59.84
12868;BME280;33517;49.866;8.320;2023-06-26T05:30:41;100291.13;;;22.15;59.97
12868;BME280;33517;49.866;8.320;2023-06-26T05:33:35;100291.22;;;22.37;59.59
12868;BME280;33517;49.866;8.320;2023-06-26T05:36:28;100290.06;;;22.49;59.31
12868;BME280;33517;49.866;8.320;2023-06-26T05:39:21;100283.97;;;22.54;60.01
12868;BME280;33517;49.866;8.320;2023-06-26T05:42:14;100296.81;;;22.68;59.13
12868;BME280;33517;49.866;8.320;2023-06-26T05:45:07;100297.22;;;22.77;58.89
12868;BME280;33517;49.866;8.320;2023-06-26T05:48:00;100291.72;;;22.88;58.43
12868;BME280;33517;49.866;8.320;2023-06-26T05:50:53;100288.31;;;23.15;58.46
12868;BME280;33517;49.866;8.320;2023-06-26T05:53:45;100291.88;;;23.63;57.83
12868;BME280;33517;49.866;8.320;2023-06-26T05:56:38;100297.78;;;23.92;57.55
12868;BME280;33517;49.866;8.320;2023-06-26T05:59:31;100296.41;;;24.16;57.15
12868;BME280;33517;49.866;8.320;2023-06-26T06:02:23;100295.75;;;24.36;56.12
12868;BME280;33517;49.866;8.320;2023-06-26T06:05:17;100295.53;;;24.42;55.85
12868;BME280;33517;49.866;8.320;2023-06-26T06:08:09;100294.28;;;24.55;54.82
12868;BME280;33517;49.866;8.320;2023-06-26T06:11:01;100283.59;;;24.65;55.38
12868;BME280;33517;49.866;8.320;2023-06-26T06:13:53;100283.53;;;24.60;54.78
12868;BME280;33517;49.866;8.320;2023-06-26T06:16:44;100282.69;;;24.54;54.50
12868;BME280;33517;49.866;8.320;2023-06-26T06:19:36;100282.94;;;24.90;54.70
12868;BME280;33517;49.866;8.320;2023-06-26T06:22:29;100290.38;;;25.29;54.26
12868;BME280;33517;49.866;8.320;2023-06-26T06:25:21;100288.41;;;25.82;54.42
12868;BME280;33517;49.866;8.320;2023-06-26T06:28:13;100286.06;;;27.24;51.14
12868;BME280;33517;49.866;8.320;2023-06-26T06:31:06;100287.69;;;30.94;42.90
12868;BME280;33517;49.866;8.320;2023-06-26T06:33:58;100307.28;;;33.00;38.92
12868;BME280;33517;49.866;8.320;2023-06-26T06:36:50;100310.84;;;33.74;36.97
12868;BME280;33517;49.866;8.320;2023-06-26T06:39:43;100309.50;;;34.39;34.75
12868;BME280;33517;49.866;8.320;2023-06-26T06:42:35;100304.41;;;34.84;34.81
12868;BME280;33517;49.866;8.320;2023-06-26T06:45:28;100307.13;;;35.72;33.42
12868;BME280;33517;49.866;8.320;2023-06-26T06:48:23;100304.06;;;36.15;32.48
12868;BME280;33517;49.866;8.320;2023-06-26T06:51:15;100294.44;;;35.47;31.27
12868;BME280;33517;49.866;8.320;2023-06-26T06:54:07;100301.69;;;35.92;30.82
12868;BME280;33517;49.866;8.320;2023-06-26T06:57:01;100295.31;;;36.78;29.95
12868;BME280;33517;49.866;8.320;2023-06-26T06:59:53;100298.28;;;37.21;30.56
12868;BME280;33517;49.866;8.320;2023-06-26T07:02:46;100292.94;;;37.13;30.34
12868;BME280;33517;49.866;8.320;2023-06-26T07:05:38;100293.22;;;37.99;29.53
12868;BME280;33517;49.866;8.320;2023-06-26T07:08:30;100284.84;;;37.96;28.20
12868;BME280;33517;49.866;8.320;2023-06-26T07:11:22;100290.91;;;37.61;28.60
12868;BME280;33517;49.866;8.320;2023-06-26T07:14:15;100284.84;;;37.96;28.04
12868;BME280;33517;49.866;8.320;2023-06-26T07:17:07;100295.44;;;38.37;28.24
12868;BME280;33517;49.866;8.320;2023-06-26T07:19:59;100296.88;;;38.93;26.81
12868;BME280;33517;49.866;8.320;2023-06-26T07:22:52;100295.13;;;38.85;27.07
12868;BME280;33517;49.866;8.320;2023-06-26T07:25:44;100300.16;;;39.49;26.37
12868;BME280;33517;49.866;8.320;2023-06-26T07:28:36;100305.78;;;39.18;25.98
12868;BME280;33517;49.866;8.320;2023-06-26T07:31:29;100299.91;;;38.14;27.56
12868;BME280;33517;49.866;8.320;2023-06-26T07:34:21;100302.22;;;38.86;26.70
12868;BME280;33517;49.866;8.320;2023-06-26T07:37:13;100296.19;;;37.94;27.48
12868;BME280;33517;49.866;8.320;2023-06-26T07:40:06;100294.38;;;35.96;29.41
12868;BME280;33517;49.866;8.320;2023-06-26T07:42:58;100304.88;;;36.48;28.88
12868;BME280;33517;49.866;8.320;2023-06-26T07:45:50;100307.03;;;38.30;27.14
12868;BME280;33517;49.866;8.320;2023-06-26T07:48:45;100306.84;;;39.13;25.66
12868;BME280;33517;49.866;8.320;2023-06-26T07:51:37;100308.28;;;39.77;25.26
12868;BME280;33517;49.866;8.320;2023-06-26T07:54:29;100315.09;;;40.40;24.46
12868;BME280;33517;49.866;8.320;2023-06-26T07:57:21;100309.72;;;40.09;24.75
12868;BME280;33517;49.866;8.320;2023-06-26T08:00:14;100305.78;;;39.72;23.54
12868;BME280;33517;49.866;8.320;2023-06-26T08:03:06;100309.16;;;39.81;24.54
12868;BME280;33517;49.866;8.320;2023-06-26T08:06:00;100313.19;;;36.39;27.19
12868;BME280;33517;49.866;8.320;2023-06-26T08:08:52;100307.78;;;36.31;27.16
12868;BME280;33517;49.866;8.320;2023-06-26T08:11:44;100304.69;;;34.54;28.80
12868;BME280;33517;49.866;8.320;2023-06-26T08:14:36;100308.66;;;35.81;27.88
12868;BME280;33517;49.866;8.320;2023-06-26T08:17:27;100308.78;;;35.93;27.17
12868;BME280;33517;49.866;8.320;2023-06-26T08:20:20;100305.69;;;35.54;28.25
12868;BME280;33517;49.866;8.320;2023-06-26T08:23:14;100303.78;;;33.90;29.63
12868;BME280;33517;49.866;8.320;2023-06-26T08:26:06;100315.47;;;33.00;30.55
12868;BME280;33517;49.866;8.320;2023-06-26T08:28:58;100302.03;;;33.68;30.49
12868;BME280;33517;49.866;8.320;2023-06-26T08:31:50;100317.97;;;37.23;26.93
12868;BME280;33517;49.866;8.320;2023-06-26T08:34:41;100318.22;;;38.22;25.28
12868;BME280;33517;49.866;8.320;2023-06-26T08:37:33;100317.78;;;39.44;24.16
12868;BME280;33517;49.866;8.320;2023-06-26T08:40:27;100307.41;;;36.65;26.43
12868;BME280;33517;49.866;8.320;2023-06-26T08:43:19;100310.69;;;33.87;30.11
12868;BME280;33517;49.866;8.320;2023-06-26T08:46:12;100311.88;;;32.51;31.91
12868;BME280;33517;49.866;8.320;2023-06-26T08:49:09;100311.06;;;33.21;31.10
12868;BME280;33517;49.866;8.320;2023-06-26T08:52:10;100309.19;;;36.16;28.25
12868;BME280;33517;49.866;8.320;2023-06-26T08:55:09;100315.81;;;39.45;25.27
12868;BME280;33517;49.866;8.320;2023-06-26T08:58:02;100319.75;;;40.81;23.02
12868;BME280;33517;49.866;8.320;2023-06-26T09:00:56;100321.97;;;40.50;23.75
12868;BME280;33517;49.866;8.320;2023-06-26T09:03:49;100320.84;;;40.35;23.57
12868;BME280;33517;49.866;8.320;2023-06-26T09:06:41;100319.63;;;40.52;23.36
12868;BME280;33517;49.866;8.320;2023-06-26T09:09:33;100324.56;;;40.84;22.79
12868;BME280;33517;49.866;8.320;2023-06-26T09:12:26;100307.53;;;40.37;23.47
12868;BME280;33517;49.866;8.320;2023-06-26T09:15:20;100321.41;;;40.86;23.22
12868;BME280;33517;49.866;8.320;2023-06-26T09:18:12;100315.75;;;42.53;22.50
12868;BME280;33517;49.866;8.320;2023-06-26T09:21:06;100323.84;;;41.99;21.69
12868;BME280;33517;49.866;8.320;2023-06-26T09:23:59;100324.63;;;41.99;21.86
12868;BME280;33517;49.866;8.320;2023-06-26T09:26:51;100321.28;;;42.53;21.90
12868;BME280;33517;49.866;8.320;2023-06-26T09:29:45;100315.00;;;42.20;21.94
12868;BME280;33517;49.866;8.320;2023-06-26T09:32:38;100331.91;;;40.77;23.16
12868;BME280;33517;49.866;8.320;2023-06-26T09:35:30;100323.34;;;38.82;24.87
12868;BME280;33517;49.866;8.320;2023-06-26T09:38:22;100319.31;;;39.96;23.66
12868;BME280;33517;49.866;8.320;2023-06-26T09:41:15;100316.16;;;38.62;25.52
12868;BME280;33517;49.866;8.320;2023-06-26T09:44:10;100321.25;;;36.68;26.92
12868;BME280;33517;49.866;8.320;2023-06-26T09:47:03;100315.78;;;34.57;29.65
12868;BME280;33517;49.866;8.320;2023-06-26T09:49:56;100307.66;;;34.78;30.00
12868;BME280;33517;49.866;8.320;2023-06-26T09:52:50;100319.50;;;35.28;29.69
12868;BME280;33517;49.866;8.320;2023-06-26T09:55:42;100326.94;;;34.09;31.02
12868;BME280;33517;49.866;8.320;2023-06-26T09:58:36;100334.94;;;33.55;31.66
12868;BME280;33517;49.866;8.320;2023-06-26T10:01:30;100330.41;;;34.44;31.03
12868;BME280;33517;49.866;8.320;2023-06-26T10:04:22;100327.38;;;35.59;30.17
12868;BME280;33517;49.866;8.320;2023-06-26T10:07:15;100331.03;;;38.61;26.98
12868;BME280;33517;49.866;8.320;2023-06-26T10:10:10;100323.22;;;37.16;26.83
12868;BME280;33517;49.866;8.320;2023-06-26T10:13:08;100334.47;;;38.42;26.30
12868;BME280;33517;49.866;8.320;2023-06-26T10:16:03;100332.25;;;39.41;25.49
12868;BME280;33517;49.866;8.320;2023-06-26T10:19:01;100327.16;;;36.58;28.28
12868;BME280;33517;49.866;8.320;2023-06-26T10:21:54;100325.44;;;35.30;29.88
12868;BME280;33517;49.866;8.320;2023-06-26T10:24:50;100318.53;;;35.33;29.46
12868;BME280;33517;49.866;8.320;2023-06-26T10:27:45;100322.78;;;37.02;27.78
12868;BME280;33517;49.866;8.320;2023-06-26T10:30:39;100327.72;;;39.49;25.55
12868;BME280;33517;49.866;8.320;2023-06-26T10:33:33;100318.34;;;38.41;26.47
12868;BME280;33517;49.866;8.320;2023-06-26T10:36:28;100312.69;;;40.38;24.48
12868;BME280;33517;49.866;8.320;2023-06-26T10:39:20;100312.69;;;40.00;24.31
12868;BME280;33517;49.866;8.320;2023-06-26T10:42:13;100322.47;;;39.60;24.50
12868;BME280;33517;49.866;8.320;2023-06-26T10:45:09;100318.91;;;39.59;25.13
12868;BME280;33517;49.866;8.320;2023-06-26T10:48:03;100307.44;;;39.22;25.19
12868;BME280;33517;49.866;8.320;2023-06-26T10:50:55;100302.78;;;36.45;27.30
12868;BME280;33517;49.866;8.320;2023-06-26T10:53:49;100310.56;;;38.90;25.82
12868;BME280;33517;49.866;8.320;2023-06-26T10:56:46;100306.81;;;39.29;25.04
12868;BME280;33517;49.866;8.320;2023-06-26T10:59:40;100308.91;;;39.35;24.49
12868;BME280;33517;49.866;8.320;2023-06-26T11:02:47;100329.22;;;38.81;24.76
12868;BME280;33517;49.866;8.320;2023-06-26T11:05:39;100319.00;;;39.12;24.98
12868;BME280;33517;49.866;8.320;2023-06-26T11:08:44;100313.50;;;40.01;23.46
12868;BME280;33517;49.866;8.320;2023-06-26T11:11:55;100317.22;;;39.20;24.07
12868;BME280;33517;49.866;8.320;2023-06-26T11:14:51;100320.91;;;38.06;25.50
12868;BME280;33517;49.866;8.320;2023-06-26T11:17:43;100318.38;;;39.03;24.58
12868;BME280;33517;49.866;8.320;2023-06-26T11:20:36;100322.06;;;39.42;23.67
12868;BME280;33517;49.866;8.320;2023-06-26T11:23:28;100330.75;;;38.35;24.78
12868;BME280;33517;49.866;8.320;2023-06-26T11:26:20;100319.41;;;38.09;24.78
12868;BME280;33517;49.866;8.320;2023-06-26T11:29:12;100325.41;;;38.69;23.66
12868;BME280;33517;49.866;8.320;2023-06-26T11:32:06;100327.50;;;38.45;24.15
12868;BME280;33517;49.866;8.320;2023-06-26T11:34:58;100343.28;;;38.48;23.87
12868;BME280;33517;49.866;8.320;2023-06-26T11:37:55;100336.56;;;37.66;24.05
12868;BME280;33517;49.866;8.320;2023-06-26T11:40:48;100334.19;;;38.04;24.46
12868;BME280;33517;49.866;8.320;2023-06-26T11:43:40;100350.13;;;37.99;24.68
12868;BME280;33517;49.866;8.320;2023-06-26T11:46:33;100323.34;;;38.51;24.15
12868;BME280;33517;49.866;8.320;2023-06-26T11:49:29;100335.09;;;38.36;23.93
12868;BME280;33517;49.866;8.320;2023-06-26T11:52:21;100345.53;;;38.03;24.48
12868;BME280;33517;49.866;8.320;2023-06-26T11:55:13;100338.47;;;39.19;23.51
12868;BME280;33517;49.866;8.320;2023-06-26T11:58:05;100340.56;;;39.95;22.32
12868;BME280;33517;49.866;8.320;2023-06-26T12:00:57;100346.19;;;39.29;22.87
12868;BME280;33517;49.866;8.320;2023-06-26T12:03:49;100343.22;;;38.60;23.96
12868;BME280;33517;49.866;8.320;2023-06-26T12:06:46;100353.25;;;38.13;23.77
12868;BME280;33517;49.866;8.320;2023-06-26T12:09:39;100343.16;;;38.29;23.85
12868;BME280;33517;49.866;8.320;2023-06-26T12:12:33;100338.53;;;38.05;23.96
12868;BME280;33517;49.866;8.320;2023-06-26T12:15:25;100342.91;;;37.54;24.02
12868;BME280;33517;49.866;8.320;2023-06-26T12:18:17;100351.63;;;37.96;23.82
12868;BME280;33517;49.866;8.320;2023-06-26T12:21:44;100355.22;;;39.30;22.18
12868;BME280;33517;49.866;8.320;2023-06-26T12:24:38;100341.28;;;38.92;22.79
12868;BME280;33517;49.866;8.320;2023-06-26T12:27:30;100340.78;;;37.88;23.65
12868;BME280;33517;49.866;8.320;2023-06-26T12:30:22;100348.75;;;37.53;23.64
12868;BME280;33517;49.866;8.320;2023-06-26T12:33:14;100349.53;;;37.29;23.47
12868;BME280;33517;49.866;8.320;2023-06-26T12:36:10;100342.28;;;35.70;24.33
12868;BME280;33517;49.866;8.320;2023-06-26T12:39:02;100336.56;;;34.96;25.23
12868;BME280;33517;49.866;8.320;2023-06-26T12:41:57;100322.28;;;34.01;26.71
12868;BME280;33517;49.866;8.320;2023-06-26T12:44:53;100339.25;;;33.08;27.62
12868;BME280;33517;49.866;8.320;2023-06-26T12:47:45;100340.66;;;32.66;28.63
12868;BME280;33517;49.866;8.320;2023-06-26T12:50:43;100347.66;;;32.36;28.56
12868;BME280;33517;49.866;8.320;2023-06-26T12:53:35;100351.28;;;32.45;27.00
12868;BME280;33517;49.866;8.320;2023-06-26T12:56:26;100341.97;;;32.69;27.54
12868;BME280;33517;49.866;8.320;2023-06-26T12:59:20;100358.88;;;32.57;27.61
12868;BME280;33517;49.866;8.320;2023-06-26T13:02:12;100348.34;;;32.20;28.24
12868;BME280;33517;49.866;8.320;2023-06-26T13:05:04;100338.69;;;32.58;27.65
12868;BME280;33517;49.866;8.320;2023-06-26T13:07:56;100351.88;;;32.65;27.07
12868;BME280;33517;49.866;8.320;2023-06-26T13:10:49;100337.56;;;32.59;25.66
12868;BME280;33517;49.866;8.320;2023-06-26T13:13:41;100341.41;;;32.36;26.71
12868;BME280;33517;49.866;8.320;2023-06-26T13:16:34;100354.50;;;32.47;26.69
12868;BME280;33517;49.866;8.320;2023-06-26T13:19:26;100352.44;;;32.53;26.21
12868;BME280;33517;49.866;8.320;2023-06-26T13:22:18;100355.09;;;32.67;26.18
12868;BME280;33517;49.866;8.320;2023-06-26T13:25:10;100355.91;;;32.67;26.17
12868;BME280;33517;49.866;8.320;2023-06-26T13:28:02;100356.81;;;32.93;26.39
12868;BME280;33517;49.866;8.320;2023-06-26T13:30:54;100363.84;;;32.86;26.79
12868;BME280;33517;49.866;8.320;2023-06-26T13:33:47;100356.28;;;32.83;26.37
12868;BME280;33517;49.866;8.320;2023-06-26T13:36:40;100362.53;;;32.52;26.71
12868;BME280;33517;49.866;8.320;2023-06-26T13:39:32;100360.56;;;32.75;27.41
12868;BME280;33517;49.866;8.320;2023-06-26T13:42:23;100361.44;;;32.53;26.16
12868;BME280;33517;49.866;8.320;2023-06-26T13:45:15;100377.28;;;32.51;26.62
12868;BME280;33517;49.866;8.320;2023-06-26T13:48:07;100369.25;;;32.33;28.34
12868;BME280;33517;49.866;8.320;2023-06-26T13:51:01;100371.41;;;32.00;26.92
12868;BME280;33517;49.866;8.320;2023-06-26T13:53:52;100371.66;;;32.12;28.80
12868;BME280;33517;49.866;8.320;2023-06-26T13:56:45;100373.28;;;32.13;27.59
12868;BME280;33517;49.866;8.320;2023-06-26T13:59:38;100375.13;;;32.04;28.44
12868;BME280;33517;49.866;8.320;2023-06-26T14:02:30;100384.72;;;32.02;27.22
12868;BME280;33517;49.866;8.320;2023-06-26T14:05:23;100382.78;;;32.02;27.98
12868;BME280;33517;49.866;8.320;2023-06-26T14:08:16;100386.47;;;31.84;27.14
12868;BME280;33517;49.866;8.320;2023-06-26T14:11:08;100389.19;;;31.84;27.01
12868;BME280;33517;49.866;8.320;2023-06-26T14:14:00;100387.69;;;31.92;25.07
12868;BME280;33517;49.866;8.320;2023-06-26T14:16:53;100394.94;;;31.96;26.04
12868;BME280;33517;49.866;8.320;2023-06-26T14:19:45;100395.53;;;31.80;26.32
12868;BME280;33517;49.866;8.320;2023-06-26T14:22:37;100395.16;;;31.72;22.92
12868;BME280;33517;49.866;8.320;2023-06-26T14:25:30;100386.88;;;31.64;26.08
12868;BME280;33517;49.866;8.320;2023-06-26T14:28:22;100385.88;;;31.33;26.03
12868;BME280;33517;49.866;8.320;2023-06-26T14:31:14;100389.28;;;31.11;27.05
12868;BME280;33517;49.866;8.320;2023-06-26T14:34:06;100379.31;;;31.07;27.68
12868;BME280;33517;49.866;8.320;2023-06-26T14:36:58;100388.06;;;30.90;27.82
12868;BME280;33517;49.866;8.320;2023-06-26T14:39:50;100380.28;;;30.83;27.40
12868;BME280;33517;49.866;8.320;2023-06-26T14:42:43;100382.53;;;30.95;26.72
12868;BME280;33517;49.866;8.320;2023-06-26T14:45:36;100383.53;;;30.99;27.45
12868;BME280;33517;49.866;8.320;2023-06-26T14:48:28;100386.69;;;31.06;27.80
12868;BME280;33517;49.866;8.320;2023-06-26T14:51:20;100381.19;;;31.38;28.07
12868;BME280;33517;49.866;8.320;2023-06-26T14:54:11;100378.72;;;31.50;27.68
12868;BME280;33517;49.866;8.320;2023-06-26T14:57:04;100379.75;;;31.54;27.46
12868;BME280;33517;49.866;8.320;2023-06-26T14:59:57;100387.41;;;31.39;27.94
12868;BME280;33517;49.866;8.320;2023-06-26T15:02:49;100390.38;;;30.83;28.02
12868;BME280;33517;49.866;8.320;2023-06-26T15:05:43;100405.75;;;30.55;28.53
12868;BME280;33517;49.866;8.320;2023-06-26T15:08:35;100394.03;;;30.41;27.39